Time;durP1;ratioP1;P1;durP2;ratioP2;P2;SDS_P1;SDS_P2;PMS_P1;PMS_P2;Temp;Humidity;BMP_temperature;BMP_pressure;BME280_temperature;BME280_humidity;BME280_pressure;Samples;Min_cycle;Max_cycle;Signal;HPM_P1;HPM_P2
2023/10/26 00:01:07;;;;;;;6.87;3.50;;;;;;;-3.09;93.04;101812.97;5052077;28;20037;-69
2023/10/26 00:03:33;;;;;;;7.47;4.47;;;;;;;-3.07;92.10;101808.53;5051991;28;20586;-67
2023/10/26 00:05:58;;;;;;;4.13;3.30;;;;;;;-3.13;92.40;101807.00;5052894;28;20047;-67
2023/10/26 00:08:24;;;;;;;6.90;4.13;;;;;;;-3.12;92.51;101808.69;5050318;28;20075;-66
2023/10/26 00:10:50;;;;;;;7.50;4.07;;;;;;;-3.28;92.84;101785.78;5034336;28;20040;-68
2023/10/26 00:13:15;;;;;;;6.50;3.60;;;;;;;-3.09;93.47;101807.75;5054017;28;20061;-68
2023/10/26 00:15:42;;;;;;;12.10;4.33;;;;;;;-3.16;93.21;101790.63;5053099;28;20690;-69
2023/10/26 00:18:08;;;;;;;7.28;3.83;;;;;;;-3.12;92.50;101797.44;5056779;28;20071;-68
2023/10/26 00:20:33;;;;;;;5.87;4.03;;;;;;;-3.24;93.55;101779.56;5056636;28;20124;-68
2023/10/26 00:22:59;;;;;;;5.83;4.07;;;;;;;-3.16;93.95;101801.03;5055627;28;20048;-69
2023/10/26 00:25:24;;;;;;;5.37;3.43;;;;;;;-3.17;93.42;101789.75;5056139;28;20156;-68
2023/10/26 00:27:51;;;;;;;5.87;4.00;;;;;;;-3.35;93.40;101764.28;5057183;28;20199;-68
2023/10/26 00:30:17;;;;;;;8.52;3.40;;;;;;;-3.15;93.79;101798.38;5057182;28;20040;-68
2023/10/26 00:32:42;;;;;;;12.83;4.10;;;;;;;-3.39;92.96;101754.03;5058973;28;20025;-70
2023/10/26 00:35:11;;;;;;;7.13;4.50;;;;;;;-3.39;92.83;101754.03;5056443;28;20053;-66
2023/10/26 00:37:37;;;;;;;5.30;4.35;;;;;;;-3.18;92.05;101787.19;5055652;28;20048;-67
2023/10/26 00:40:03;;;;;;;11.37;4.63;;;;;;;-3.19;93.13;101783.72;5054903;28;20040;-68
2023/10/26 00:42:29;;;;;;;6.38;4.18;;;;;;;-3.13;91.74;101785.31;5055309;28;20515;-70
2023/10/26 00:44:56;;;;;;;4.60;3.30;;;;;;;-3.35;91.59;101750.41;5054786;28;20064;-69
2023/10/26 00:47:24;;;;;;;5.72;4.00;;;;;;;-3.19;92.59;101785.47;5065060;28;20040;-65
2023/10/26 00:49:49;;;;;;;6.63;3.53;;;;;;;-3.19;92.50;101782.88;5064895;28;20020;-69
2023/10/26 00:52:15;;;;;;;9.00;3.57;;;;;;;-3.30;93.38;101766.75;5065414;28;20035;-65
2023/10/26 00:54:42;;;;;;;5.83;3.60;;;;;;;-3.22;92.77;101786.44;5064213;28;20037;-72
2023/10/26 00:57:09;;;;;;;8.48;3.90;;;;;;;-3.24;92.62;101782.16;5063549;28;20566;-69
2023/10/26 00:59:35;;;;;;;6.53;3.67;;;;;;;-3.23;92.00;101792.53;5064450;28;20177;-67
2023/10/26 01:02:02;;;;;;;8.05;3.92;;;;;;;-3.23;92.67;101781.28;5066156;28;20048;-68
2023/10/26 01:04:28;;;;;;;4.95;3.40;;;;;;;-3.23;92.86;101794.28;5063106;28;20079;-70
2023/10/26 01:06:54;;;;;;;8.43;3.67;;;;;;;-3.41;93.00;101754.09;5062832;28;20064;-68
2023/10/26 01:09:21;;;;;;;8.40;3.90;;;;;;;-3.30;93.19;101769.34;5062853;28;20057;-70
2023/10/26 01:11:47;;;;;;;6.03;3.85;;;;;;;-3.34;93.23;101765.16;5063153;28;20132;-69
2023/10/26 01:14:14;;;;;;;12.57;5.17;;;;;;;-3.33;92.86;101761.66;5064303;28;20048;-70
2023/10/26 01:16:39;;;;;;;7.43;4.15;;;;;;;-3.36;93.10;101757.38;5076058;28;20522;-70
2023/10/26 01:19:06;;;;;;;7.33;3.87;;;;;;;-3.38;93.15;101742.72;5062942;28;20056;-70
2023/10/26 01:21:46;;;;;;;8.70;4.97;;;;;;;-3.24;92.71;101769.16;5056198;28;20127;-68
2023/10/26 01:24:12;;;;;;;8.55;3.63;;;;;;;-3.35;93.63;101747.81;5056124;28;20040;-68
2023/10/26 01:26:37;;;;;;;4.57;3.97;;;;;;;-3.66;92.91;101701.94;5055007;28;20116;-67
2023/10/26 01:29:03;;;;;;;7.37;3.80;;;;;;;-3.23;93.04;101769.09;5056919;28;20043;-68
2023/10/26 01:31:28;;;;;;;17.87;3.80;;;;;;;-3.23;93.37;101763.88;5059687;28;20041;-70
2023/10/26 01:33:56;;;;;;;6.90;3.60;;;;;;;-3.23;91.64;101763.03;5057572;28;20064;-69
2023/10/26 01:36:22;;;;;;;7.90;3.80;;;;;;;-3.36;92.30;101740.91;5056142;28;20040;-67
2023/10/26 01:38:47;;;;;;;5.00;3.50;;;;;;;-3.42;92.77;101739.34;5055284;28;20048;-69
2023/10/26 01:41:13;;;;;;;7.80;3.93;;;;;;;-3.39;93.65;101741.00;5055627;28;20040;-67
2023/10/26 01:43:38;;;;;;;6.00;3.37;;;;;;;-3.38;93.78;101746.16;5054466;28;20033;-71
2023/10/26 01:46:04;;;;;;;4.97;3.40;;;;;;;-3.29;92.60;101752.81;5052535;28;20029;-71
2023/10/26 01:48:29;;;;;;;10.67;5.77;;;;;;;-3.27;92.76;101761.44;5053653;28;20553;-69
2023/10/26 01:50:55;;;;;;;4.33;3.40;;;;;;;-3.33;92.45;101740.81;5053824;28;20055;-69
2023/10/26 01:53:23;;;;;;;4.60;4.20;;;;;;;-3.30;92.73;101751.13;5052509;28;20033;-65
2023/10/26 01:55:49;;;;;;;6.97;3.58;;;;;;;-3.41;92.44;101735.00;5054070;28;20033;-68
2023/10/26 01:58:15;;;;;;;5.55;3.30;;;;;;;-3.49;91.95;101720.44;5054161;28;20036;-69
2023/10/26 02:00:41;;;;;;;7.93;3.63;;;;;;;-3.34;91.84;101750.38;5062957;28;20087;-70
2023/10/26 02:03:07;;;;;;;7.68;3.95;;;;;;;-3.60;91.63;101701.72;5055253;28;20084;-69
2023/10/26 02:05:33;;;;;;;8.20;4.73;;;;;;;-3.35;92.76;101750.41;5055119;28;20075;-68
2023/10/26 02:07:59;;;;;;;6.68;3.67;;;;;;;-3.39;92.67;101751.44;5052858;28;20052;-68
2023/10/26 02:10:29;;;;;;;11.47;3.60;;;;;;;-3.35;92.31;101753.03;5053656;28;20116;-70
2023/10/26 02:12:58;;;;;;;5.82;3.65;;;;;;;-3.36;91.98;101746.97;5052988;28;20174;-69
2023/10/26 02:15:23;;;;;;;;;;;;;;;-3.37;91.57;101745.25;5052661;28;20046;-67
2023/10/26 02:17:49;;;;;;;7.30;3.97;;;;;;;-3.59;92.22;101713.00;5053355;28;20464;-70
2023/10/26 02:20:15;;;;;;;6.20;3.73;;;;;;;-3.55;91.69;101720.66;5052115;28;20119;-69
2023/10/26 02:22:41;;;;;;;8.83;3.70;;;;;;;-3.55;92.18;101717.19;5053283;28;20119;-69
2023/10/26 02:25:07;;;;;;;5.07;3.77;;;;;;;-3.62;92.94;101719.16;5053335;28;20461;-68
2023/10/26 02:27:33;;;;;;;6.20;4.80;;;;;;;-3.47;92.45;101742.13;5052794;28;20446;-68
2023/10/26 02:29:59;;;;;;;6.75;4.88;;;;;;;-3.47;92.11;101736.91;5053118;28;20029;-70
2023/10/26 02:32:24;;;;;;;7.33;4.40;;;;;;;-3.56;92.74;101718.94;5052705;28;20043;-69
2023/10/26 02:34:50;;;;;;;8.57;4.33;;;;;;;-3.45;91.28;101737.72;5052882;28;20060;-70
2023/10/26 02:37:18;;;;;;;5.37;3.87;;;;;;;-3.51;91.44;101729.22;5034799;28;20052;-69
2023/10/26 02:39:44;;;;;;;6.30;3.22;;;;;;;-3.76;91.66;101685.78;5052976;28;20109;-71
2023/10/26 02:42:10;;;;;;;5.35;4.22;;;;;;;-3.93;92.16;101662.00;5051875;28;20037;-68
2023/10/26 02:44:36;;;;;;;6.43;3.67;;;;;;;-3.56;92.26;101726.75;5054791;28;20126;-69
2023/10/26 02:47:02;;;;;;;7.20;4.57;;;;;;;-3.54;92.31;101724.97;5055113;28;20495;-68
2023/10/26 02:49:28;;;;;;;7.20;3.90;;;;;;;-3.50;92.05;101729.16;5052511;28;20036;-70
2023/10/26 02:51:53;;;;;;;10.40;4.20;;;;;;;-3.79;91.88;101679.78;5051330;28;20468;-68
2023/10/26 02:54:19;;;;;;;10.50;4.30;;;;;;;-3.51;92.94;101732.66;5052501;28;20488;-69
2023/10/26 02:56:45;;;;;;;5.33;3.40;;;;;;;-3.67;92.56;101695.03;5051284;28;20045;-67
2023/10/26 02:59:10;;;;;;;6.70;3.60;;;;;;;-3.52;92.21;101724.91;5052226;28;20044;-69
2023/10/26 03:01:36;;;;;;;6.03;3.70;;;;;;;-3.58;92.19;101715.56;5052381;28;20033;-69
2023/10/26 03:04:02;;;;;;;5.03;3.67;;;;;;;-3.59;91.69;101716.44;5052400;28;20029;-67
2023/10/26 03:06:28;;;;;;;4.68;3.78;;;;;;;-3.70;91.85;101695.13;5051984;28;20036;-68
2023/10/26 03:08:54;;;;;;;7.13;4.40;;;;;;;-3.67;91.75;101710.66;5036146;28;20045;-68
2023/10/26 03:11:19;;;;;;;6.37;3.63;;;;;;;-3.63;92.20;101716.59;5053509;28;20033;-70
2023/10/26 03:13:45;;;;;;;5.43;3.37;;;;;;;-3.84;91.78;101677.34;5052716;28;20123;-68
2023/10/26 03:16:10;;;;;;;9.43;3.90;;;;;;;-3.69;91.98;101702.03;5051068;28;20159;-70
2023/10/26 03:18:37;;;;;;;7.17;3.80;;;;;;;-3.56;92.28;101718.09;5050929;28;20374;-68
2023/10/26 03:21:03;;;;;;;7.47;4.60;;;;;;;-3.64;91.85;101707.94;5052267;28;20057;-67
2023/10/26 03:23:29;;;;;;;6.30;3.63;;;;;;;-3.72;92.13;101685.66;5052139;28;20045;-69
2023/10/26 03:25:54;;;;;;;4.23;3.37;;;;;;;-3.68;92.10;101684.66;5052683;28;20044;-69
2023/10/26 03:28:20;;;;;;;5.00;3.37;;;;;;;-3.54;92.42;101701.53;5050977;28;20033;-71
2023/10/26 03:30:45;;;;;;;7.70;4.73;;;;;;;-3.62;91.81;101684.47;5051865;28;20309;-67
2023/10/26 03:33:11;;;;;;;7.67;4.00;;;;;;;-3.67;90.88;101683.75;5050400;28;20033;-69
2023/10/26 03:35:38;;;;;;;4.93;4.10;;;;;;;-3.56;91.26;101702.47;5050905;28;20166;-69
2023/10/26 03:38:03;;;;;;;4.47;3.03;;;;;;;-3.75;90.93;101665.78;5051974;28;20036;-67
2023/10/26 03:40:29;;;;;;;6.67;3.60;;;;;;;-3.93;90.80;101629.94;5050793;28;20499;-69
2023/10/26 03:42:55;;;;;;;5.38;3.53;;;;;;;-3.66;90.72;101673.31;5052548;28;20036;-70
2023/10/26 03:45:20;;;;;;;5.57;3.10;;;;;;;-3.76;91.21;101657.13;5052361;28;20037;-71
2023/10/26 03:47:46;;;;;;;3.87;3.00;;;;;;;-3.54;90.20;101696.31;5051126;28;20090;-70
2023/10/26 03:50:12;;;;;;;4.20;3.80;;;;;;;-3.52;90.22;101706.69;5052055;28;20396;-67
2023/10/26 03:52:37;;;;;;;9.83;5.60;;;;;;;-3.72;90.95;101667.44;5050429;28;20083;-71
2023/10/26 03:55:04;;;;;;;7.90;4.07;;;;;;;-3.57;90.98;101691.22;5052273;28;20093;-69
2023/10/26 03:57:33;;;;;;;7.47;4.45;;;;;;;-3.68;91.76;101674.25;5050857;28;20047;-70
2023/10/26 03:59:59;;;;;;;6.50;4.22;;;;;;;-3.65;91.65;101679.34;5051911;28;20040;-70
2023/10/26 04:02:25;;;;;;;6.27;3.73;;;;;;;-3.57;91.62;101688.63;5053402;28;20035;-67
2023/10/26 04:04:50;;;;;;;6.70;4.67;;;;;;;-3.58;91.78;101693.88;5063308;28;20040;-68
2023/10/26 04:07:16;;;;;;;9.57;4.50;;;;;;;-3.55;91.98;101699.81;5052695;28;20472;-67
2023/10/26 04:09:42;;;;;;;5.75;3.70;;;;;;;-3.63;92.06;101683.59;5052092;28;20053;-70
2023/10/26 04:12:08;;;;;;;6.27;4.23;;;;;;;-3.69;92.29;101668.19;5034236;28;20094;-71
2023/10/26 04:14:33;;;;;;;5.70;3.77;;;;;;;-3.55;92.38;101694.63;5051371;28;20415;-70
2023/10/26 04:17:00;;;;;;;7.40;3.30;;;;;;;-3.74;92.07;101672.69;5051478;28;20040;-71
2023/10/26 04:19:25;;;;;;;15.80;3.95;;;;;;;-3.57;92.97;101696.41;5051582;28;20480;-68
2023/10/26 04:21:51;;;;;;;4.50;3.67;;;;;;;-3.58;93.53;101699.06;5050526;28;20086;-69
2023/10/26 04:24:16;;;;;;;10.47;3.23;;;;;;;-3.59;92.75;101693.03;5052435;28;20065;-69
2023/10/26 04:26:42;;;;;;;5.50;3.30;;;;;;;-3.67;92.54;101679.41;5050749;28;20033;-68
2023/10/26 04:29:08;;;;;;;6.07;3.13;;;;;;;-3.68;92.38;101676.84;5052137;28;20033;-70
2023/10/26 04:31:34;;;;;;;7.37;4.23;;;;;;;-3.71;92.78;101690.81;5052029;28;20037;-70
2023/10/26 04:34:00;;;;;;;6.47;3.33;;;;;;;-3.77;91.87;101663.22;5051943;28;20049;-70
2023/10/26 04:36:26;;;;;;;4.53;3.53;;;;;;;-3.60;91.89;101695.69;5051970;28;20067;-68
2023/10/26 04:38:52;;;;;;;8.23;5.20;;;;;;;-3.66;92.14;101681.09;5052524;28;20069;-69
2023/10/26 04:41:18;;;;;;;5.77;3.30;;;;;;;-3.62;93.04;101692.28;5051959;28;20114;-68
2023/10/26 04:43:43;;;;;;;5.20;3.42;;;;;;;-3.60;93.70;101693.91;5037652;28;20044;-69
2023/10/26 04:46:09;;;;;;;9.13;3.23;;;;;;;-3.58;92.59;101689.50;5059007;28;20033;-69
2023/10/26 04:48:35;;;;;;;11.83;3.60;;;;;;;-3.54;93.72;101687.66;5054541;28;20399;-70
2023/10/26 04:51:00;;;;;;;11.37;4.13;;;;;;;-3.61;93.60;101681.81;5053993;28;20125;-73
2023/10/26 04:53:28;;;;;;;6.40;3.10;;;;;;;-3.61;94.34;101675.75;5056236;28;20037;-68
2023/10/26 04:55:53;;;;;;;8.88;4.50;;;;;;;-3.95;93.34;101621.34;5057877;28;20044;-70
2023/10/26 04:58:19;;;;;;;6.00;3.97;;;;;;;-3.68;92.78;101667.28;5056456;28;20044;-71
2023/10/26 05:00:44;;;;;;;7.23;3.93;;;;;;;-3.76;92.94;101648.44;5052987;28;20041;-69
2023/10/26 05:03:10;;;;;;;10.10;4.07;;;;;;;-3.77;92.76;101662.38;5051614;28;20037;-71
2023/10/26 05:05:36;;;;;;;9.77;5.37;;;;;;;-3.71;92.56;101651.78;5050448;28;20412;-73
2023/10/26 05:08:01;;;;;;;8.17;3.67;;;;;;;-3.56;93.92;101677.28;5052031;28;20110;-71
2023/10/26 05:10:27;;;;;;;7.93;3.80;;;;;;;-3.75;93.70;101643.22;5054380;28;20128;-72
2023/10/26 05:12:53;;;;;;;9.85;3.83;;;;;;;-3.72;93.26;101650.06;5067446;28;20028;-70
2023/10/26 05:15:19;;;;;;;9.03;3.80;;;;;;;-3.57;92.96;101688.63;5076182;28;20063;-70
2023/10/26 05:17:45;;;;;;;7.10;3.20;;;;;;;-3.75;92.81;101638.00;5077308;28;20101;-71
2023/10/26 05:20:11;;;;;;;8.43;3.42;;;;;;;-3.49;93.55;101673.56;5074832;28;20033;-70
2023/10/26 05:22:37;;;;;;;8.23;3.30;;;;;;;-3.69;92.72;101639.56;5074332;28;20086;-72
2023/10/26 05:25:06;;;;;;;9.47;4.20;;;;;;;-3.48;92.69;101674.44;5074449;28;20036;-70
2023/10/26 05:27:32;;;;;;;7.97;3.45;;;;;;;-3.65;92.32;101645.50;5060308;28;20035;-69
2023/10/26 05:29:58;;;;;;;30.50;11.50;;;;;;;-3.55;93.06;101650.34;5054856;28;20535;-69
2023/10/26 05:32:24;;;;;;;38.28;11.45;;;;;;;-3.71;92.87;101625.75;5054493;28;20131;-70
2023/10/26 05:34:50;;;;;;;19.70;6.60;;;;;;;-3.51;92.80;101651.09;5054564;28;20482;-70
2023/10/26 05:37:16;;;;;;;9.60;5.20;;;;;;;-3.57;91.68;101641.75;5055158;28;20132;-70
2023/10/26 05:39:41;;;;;;;6.47;4.20;;;;;;;-3.45;92.49;101651.78;5054177;28;20037;-71
2023/10/26 05:42:07;;;;;;;8.07;4.10;;;;;;;-3.28;91.75;101677.22;5053996;28;20112;-70
2023/10/26 05:44:32;;;;;;;5.43;3.70;;;;;;;-3.69;92.42;101597.91;5054348;28;20033;-71
2023/10/26 05:46:59;;;;;;;8.73;4.67;;;;;;;-3.30;91.40;101670.38;5054548;28;20036;-70
2023/10/26 05:49:25;;;;;;;6.60;3.88;;;;;;;-3.42;91.07;101657.78;5054010;28;20505;-73
2023/10/26 05:51:51;;;;;;;7.65;4.15;;;;;;;-3.37;91.62;101661.91;5054980;28;20131;-73
2023/10/26 05:54:17;;;;;;;5.57;3.70;;;;;;;-3.33;92.52;101666.13;5054020;28;20124;-70
2023/10/26 05:56:43;;;;;;;5.77;4.10;;;;;;;-3.44;91.70;101643.06;5052540;28;20124;-72
2023/10/26 05:59:08;;;;;;;7.33;4.70;;;;;;;-3.44;91.77;101643.06;5053308;28;20037;-69
2023/10/26 06:01:34;;;;;;;8.30;4.13;;;;;;;-3.35;91.99;101664.47;5056221;28;20033;-69
2023/10/26 06:03:59;;;;;;;14.00;4.60;;;;;;;-3.63;92.49;101610.72;5054686;28;20032;-70
2023/10/26 06:06:25;;;;;;;9.77;4.23;;;;;;;-3.29;92.88;101659.03;5058470;28;20088;-71
2023/10/26 06:08:51;;;;;;;6.67;3.87;;;;;;;-3.31;93.22;101653.03;5061568;28;20037;-71
2023/10/26 06:11:17;;;;;;;6.77;3.70;;;;;;;-3.36;93.79;101634.13;5052988;28;20048;-69
2023/10/26 06:13:43;;;;;;;9.35;4.18;;;;;;;-3.59;92.83;101601.03;5053555;28;20033;-72
2023/10/26 06:16:12;;;;;;;9.35;3.92;;;;;;;-3.53;92.61;101606.88;5053628;28;20420;-68
2023/10/26 06:18:39;;;;;;;6.32;4.05;;;;;;;-3.30;92.81;101646.91;5054065;28;20123;-72
2023/10/26 06:21:05;;;;;;;5.10;3.72;;;;;;;-3.42;93.08;101629.97;5053922;28;20081;-76
2023/10/26 06:23:31;;;;;;;5.90;3.90;;;;;;;-3.36;93.33;101623.69;5052959;28;20036;-76
2023/10/26 06:26:01;;;;;;;5.77;3.53;;;;;;;-3.31;92.87;101632.19;5052958;28;20478;-74
2023/10/26 06:28:27;;;;;;;6.53;3.60;;;;;;;-3.40;91.96;101609.09;5054554;28;20048;-74
2023/10/26 06:30:54;;;;;;;11.00;5.25;;;;;;;-3.33;92.29;101621.84;5053247;28;20125;-74
2023/10/26 06:33:26;;;;;;;6.85;4.15;;;;;;;-3.21;93.16;101634.41;5052888;28;20128;-70
2023/10/26 06:35:51;;;;;;;10.10;3.90;;;;;;;-3.11;92.16;101648.00;5053317;28;20139;-74
2023/10/26 06:38:17;;;;;;;7.67;3.53;;;;;;;-3.17;92.24;101632.59;5053083;28;20045;-73
2023/10/26 06:40:44;;;;;;;10.20;3.70;;;;;;;-3.19;91.95;101626.53;5053121;28;20056;-72
2023/10/26 06:43:10;;;;;;;12.32;5.00;;;;;;;-3.15;92.51;101636.84;5053320;28;20036;-73
2023/10/26 06:45:36;;;;;;;36.03;9.97;;;;;;;-3.18;92.38;101630.84;5051373;28;20028;-72
2023/10/26 06:48:01;;;;;;;10.83;3.90;;;;;;;-3.18;92.06;101623.91;5051803;28;20291;-71
2023/10/26 06:50:27;;;;;;;7.90;3.50;;;;;;;-3.12;91.93;101635.88;5053091;28;20094;-72
2023/10/26 06:52:54;;;;;;;7.50;4.37;;;;;;;-3.04;92.53;101633.00;5053063;28;20036;-71
2023/10/26 06:55:19;;;;;;;11.00;4.88;;;;;;;-2.97;92.83;101648.34;5052857;28;20033;-71
2023/10/26 06:57:45;;;;;;;12.13;4.93;;;;;;;-3.02;92.16;101637.25;5052829;28;20439;-71
2023/10/26 07:00:11;;;;;;;7.37;4.63;;;;;;;-3.18;92.47;101607.41;5052329;28;20038;-72
2023/10/26 07:02:37;;;;;;;8.18;3.83;;;;;;;-3.15;92.67;101604.72;5053292;28;20059;-72
2023/10/26 07:05:03;;;;;;;11.80;4.27;;;;;;;-2.93;92.95;101636.91;5053145;28;20497;-72
2023/10/26 07:07:33;;;;;;;7.15;3.67;;;;;;;-2.94;92.99;101629.13;5052713;28;20052;-73
2023/10/26 07:09:58;;;;;;;4.45;3.58;;;;;;;-2.94;93.24;101626.53;5053018;28;20040;-72
2023/10/26 07:12:24;;;;;;;6.60;5.07;;;;;;;-2.87;93.14;101626.28;5053513;28;20389;-72
2023/10/26 07:14:54;;;;;;;14.83;5.23;;;;;;;-2.90;92.96;101610.72;5053170;28;20040;-73
2023/10/26 07:17:21;;;;;;;12.15;5.20;;;;;;;-2.93;93.26;101613.44;5053970;28;20036;-70
2023/10/26 07:19:47;;;;;;;13.63;5.75;;;;;;;-2.86;93.51;101616.69;5055086;28;20037;-72
2023/10/26 07:22:13;;;;;;;11.80;5.63;;;;;;;-2.70;93.83;101630.00;5053003;28;20052;-72
2023/10/26 07:24:38;;;;;;;8.53;4.60;;;;;;;-2.64;93.00;101627.16;5054193;28;20068;-72
2023/10/26 07:27:04;;;;;;;11.93;5.00;;;;;;;-2.59;92.88;101620.88;5055605;28;20045;-71
2023/10/26 07:29:30;;;;;;;15.35;5.40;;;;;;;-2.78;93.53;101577.31;5054641;28;20407;-70
2023/10/26 07:31:56;;;;;;;9.30;4.60;;;;;;;-2.97;92.58;101533.66;5055939;28;20056;-73
2023/10/26 07:34:23;;;;;;;12.07;5.90;;;;;;;-3.11;92.68;101491.66;5052738;28;20052;-71
2023/10/26 07:36:48;;;;;;;9.75;4.88;;;;;;;-2.44;92.26;101603.78;5052794;28;20041;-64
2023/10/26 07:39:14;;;;;;;14.30;5.23;;;;;;;-2.28;91.54;101614.50;5052165;28;20377;-66
2023/10/26 07:41:40;;;;;;;10.60;4.40;;;;;;;-2.22;92.06;101620.31;5051792;28;20123;-69
2023/10/26 07:44:05;;;;;;;17.73;7.17;;;;;;;-2.22;91.88;101594.22;5051489;28;20048;-66
2023/10/26 07:46:31;;;;;;;5.80;4.23;;;;;;;-2.08;90.59;101614.53;5051392;28;20069;-67
2023/10/26 07:48:57;;;;;;;14.10;4.33;;;;;;;-2.15;90.12;101587.00;5051775;28;20120;-68
2023/10/26 07:51:22;;;;;;;10.23;5.23;;;;;;;-2.06;90.64;101589.22;5052202;28;20040;-67
2023/10/26 07:53:48;;;;;;;11.20;4.57;;;;;;;-2.03;89.70;101583.88;5054262;28;20046;-65
2023/10/26 07:56:15;;;;;;;12.07;5.40;;;;;;;-1.85;89.76;101607.53;5051914;28;20041;-68
2023/10/26 07:58:40;;;;;;;7.93;4.43;;;;;;;-2.05;89.78;101558.75;5052395;28;20616;-68
2023/10/26 08:01:09;;;;;;;10.47;4.60;;;;;;;-1.81;88.97;101596.91;5052184;28;20792;-67
2023/10/26 08:03:35;;;;;;;7.63;4.35;;;;;;;-1.69;87.77;101596.41;5051804;28;20041;-70
2023/10/26 08:06:01;;;;;;;8.17;4.50;;;;;;;-1.68;87.93;101586.81;5051653;28;20040;-70
2023/10/26 08:08:27;;;;;;;17.33;6.00;;;;;;;-1.76;88.52;101553.16;5052731;28;20090;-66
2023/10/26 08:10:53;;;;;;;12.20;5.47;;;;;;;-1.51;87.59;101580.88;5060800;28;20369;-69
2023/10/26 08:13:19;;;;;;;13.83;5.63;;;;;;;-1.41;86.96;101587.41;5050240;28;20318;-66
2023/10/26 08:15:45;;;;;;;9.63;6.10;;;;;;;-1.33;87.06;101595.75;5051388;28;20131;-67
2023/10/26 08:18:12;;;;;;;10.00;4.13;;;;;;;-1.29;85.44;101586.88;5051808;28;20029;-67
2023/10/26 08:20:38;;;;;;;9.13;5.30;;;;;;;-1.30;85.69;101572.09;5051398;28;20400;-69
2023/10/26 08:23:04;;;;;;;7.73;4.50;;;;;;;-1.18;84.48;101584.63;5050207;28;20271;-68
2023/10/26 08:25:34;;;;;;;8.37;4.60;;;;;;;-1.08;85.30;101579.88;5051737;28;20268;-67
2023/10/26 08:27:59;;;;;;;12.27;4.60;;;;;;;-1.16;84.86;101556.66;5051330;28;20328;-69
2023/10/26 08:30:25;;;;;;;10.80;4.90;;;;;;;-0.91;85.19;101584.31;5051273;28;20268;-70
2023/10/26 08:32:53;;;;;;;8.33;4.53;;;;;;;-0.86;83.72;101592.84;5051285;28;20044;-70
2023/10/26 08:35:20;;;;;;;6.70;4.85;;;;;;;-1.18;82.72;101521.91;5051317;28;20053;-69
2023/10/26 08:37:45;;;;;;;12.73;4.40;;;;;;;-0.87;81.92;101557.09;5051144;28;20084;-69
2023/10/26 08:40:12;;;;;;;57.10;21.90;;;;;;;-0.81;81.63;101562.09;5056124;28;20302;-67
2023/10/26 08:42:39;;;;;;;14.30;5.03;;;;;;;-0.83;81.02;101553.47;5054844;28;20079;-71
2023/10/26 08:45:12;;;;;;;9.20;4.13;;;;;;;-0.76;80.02;101560.09;5053554;28;20274;-68
2023/10/26 08:47:37;;;;;;;8.03;4.60;;;;;;;-0.73;79.95;101550.34;5054060;28;20747;-71
2023/10/26 08:50:03;;;;;;;8.57;4.03;;;;;;;-0.68;80.23;101547.50;5055460;28;20321;-71
2023/10/26 08:52:30;;;;;;;7.33;4.57;;;;;;;-0.56;79.30;101551.34;5056052;28;20559;-69
2023/10/26 08:54:56;;;;;;;11.40;4.20;;;;;;;-0.51;77.19;101571.13;5053783;28;20755;-69
2023/10/26 08:57:21;;;;;;;9.00;3.63;;;;;;;-0.46;78.41;101565.66;5053810;28;20890;-68
2023/10/26 08:59:47;;;;;;;11.67;3.77;;;;;;;-0.46;77.38;101549.97;5053800;28;20468;-69
2023/10/26 09:02:12;;;;;;;6.83;3.87;;;;;;;-0.37;76.95;101549.50;5054711;28;20144;-70
2023/10/26 09:04:38;;;;;;;6.97;3.83;;;;;;;-0.38;76.33;101551.28;5054663;28;20376;-69
2023/10/26 09:07:03;;;;;;;11.27;3.83;;;;;;;-0.37;76.69;101547.75;5055339;28;20041;-68
2023/10/26 09:09:43;;;;;;;6.87;3.50;;;;;;;-0.42;76.02;101549.75;5054455;28;20036;-68
2023/10/26 09:12:09;;;;;;;9.13;3.90;;;;;;;-0.61;75.45;101522.75;5054678;28;20028;-69
2023/10/26 09:14:35;;;;;;;6.50;2.97;;;;;;;-0.49;76.14;101539.66;5054519;28;20294;-67
2023/10/26 09:17:00;;;;;;;10.13;3.43;;;;;;;-0.50;76.38;101546.66;5052936;28;20087;-68
2023/10/26 09:19:37;;;;;;;6.07;2.80;;;;;;;-0.60;76.84;101521.81;5053269;28;20041;-70
2023/10/26 09:22:03;;;;;;;12.23;3.87;;;;;;;-0.85;77.07;101479.47;5053184;28;20037;-70
2023/10/26 09:24:29;;;;;;;44.27;7.33;;;;;;;-0.51;77.91;101524.03;5053241;28;20278;-68
2023/10/26 09:26:58;;;;;;;7.90;3.80;;;;;;;-0.50;78.86;101520.50;5055602;28;20124;-70
2023/10/26 09:29:41;;;;;;;10.60;4.37;;;;;;;-0.51;78.08;101515.31;5053009;28;20263;-72
2023/10/26 09:32:08;;;;;;;5.27;3.47;;;;;;;-0.58;77.49;101512.13;5054105;28;20267;-71
2023/10/26 09:34:42;;;;;;;6.00;3.83;;;;;;;-0.64;78.28;101501.97;5054930;28;20378;-75
2023/10/26 09:37:10;;;;;;;4.73;3.10;;;;;;;-0.66;78.26;101493.34;5053603;28;20326;-72
2023/10/26 09:39:37;;;;;;;7.53;4.00;;;;;;;-0.64;79.26;101501.97;5054985;28;20263;-73
2023/10/26 09:42:05;;;;;;;5.77;3.07;;;;;;;-0.58;79.29;101504.28;5054111;28;20290;-72
2023/10/26 09:44:32;;;;;;;4.85;3.38;;;;;;;-0.60;80.16;101502.66;5055719;28;20358;-75
2023/10/26 09:46:58;;;;;;;9.37;3.70;;;;;;;-0.81;79.35;101457.47;5054064;28;20068;-68
2023/10/26 09:49:26;;;;;;;3.73;3.10;;;;;;;-0.57;79.82;101492.94;5053363;28;20271;-68
2023/10/26 09:51:53;;;;;;;10.53;3.30;;;;;;;-0.56;80.07;101478.06;5053872;28;20264;-67
2023/10/26 09:54:24;;;;;;;8.50;3.53;;;;;;;-0.47;80.16;101493.31;5058561;28;20271;-72
2023/10/26 09:57:27;;;;;;;11.07;5.63;;;;;;;-0.50;80.83;101489.09;5070345;28;20412;-72
2023/10/26 09:59:53;;;;;;;6.43;3.40;;;;;;;-0.57;80.00;101466.75;5069717;28;20291;-72
2023/10/26 10:02:20;;;;;;;6.50;3.27;;;;;;;-0.72;80.48;101446.56;5064284;28;20268;-63
2023/10/26 10:04:47;;;;;;;5.83;4.07;;;;;;;-0.43;81.35;101472.16;5061764;28;20040;-66
2023/10/26 10:07:18;;;;;;;6.47;3.47;;;;;;;-0.50;80.68;101465.53;5052513;28;20264;-69
2023/10/26 10:10:09;;;;;;;6.73;3.33;;;;;;;-0.38;81.69;101470.16;5053856;28;20632;-69
2023/10/26 10:12:36;;;;;;;7.33;3.70;;;;;;;-0.50;81.04;101452.44;5061692;28;20754;-69
2023/10/26 10:15:06;;;;;;;8.47;3.47;;;;;;;-0.39;80.93;101471.09;5046389;28;20294;-69
2023/10/26 10:17:44;;;;;;;6.53;3.90;;;;;;;-0.39;81.79;101460.63;5062572;28;20299;-69
2023/10/26 10:20:19;;;;;;;4.40;3.67;;;;;;;-0.26;82.69;101467.88;5063936;28;20263;-68
2023/10/26 10:22:50;;;;;;;5.30;3.40;;;;;;;-0.29;81.13;101431.34;5053734;28;20174;-69
2023/10/26 10:25:20;;;;;;;6.80;3.47;;;;;;;-0.24;80.75;101432.00;5057970;28;20279;-68
2023/10/26 10:27:48;;;;;;;5.80;3.23;;;;;;;-0.25;81.42;101443.41;5059351;28;20776;-69
2023/10/26 10:30:19;;;;;;;4.05;3.33;;;;;;;-0.37;82.28;101424.75;5057442;28;20812;-69
2023/10/26 10:32:45;;;;;;;7.83;3.67;;;;;;;-0.20;82.18;101449.25;5057283;28;20467;-69
2023/10/26 10:35:23;;;;;;;7.73;3.63;;;;;;;-0.21;83.50;101442.31;5059370;28;20275;-69
2023/10/26 10:38:13;;;;;;;9.68;4.18;;;;;;;-0.16;82.99;101435.91;5052216;28;20048;-69
2023/10/26 10:40:54;;;;;;;5.60;3.30;;;;;;;-0.16;83.12;101435.06;5053425;28;20551;-70
2023/10/26 10:43:36;;;;;;;8.67;4.33;;;;;;;0.07;83.21;101432.13;5055902;28;20259;-70
2023/10/26 10:46:26;;;;;;;6.47;3.93;;;;;;;0.08;81.45;101418.09;5051140;28;20310;-69
2023/10/26 10:49:03;;;;;;;5.13;3.70;;;;;;;-0.08;82.95;101428.50;5052297;28;20320;-71
2023/10/26 10:51:30;;;;;;;9.40;3.87;;;;;;;-0.08;83.86;101423.28;5053384;28;20271;-71
2023/10/26 10:53:55;;;;;;;7.93;4.50;;;;;;;-0.03;83.87;101426.50;5051870;28;20286;-73
2023/10/26 10:56:23;;;;;;;6.67;4.00;;;;;;;-0.20;83.82;101402.13;5053761;28;20295;-73
2023/10/26 10:58:51;;;;;;;9.27;4.03;;;;;;;-0.15;85.52;101415.81;5052729;28;20044;-71
2023/10/26 11:01:20;;;;;;;9.53;3.90;;;;;;;-0.15;86.08;101416.66;5053432;28;20286;-74
2023/10/26 11:03:47;;;;;;;7.83;3.93;;;;;;;-0.22;86.28;101406.59;5051452;28;20275;-72
2023/10/26 11:06:17;;;;;;;6.27;4.47;;;;;;;-0.46;87.61;101391.19;5052333;28;20307;-65
2023/10/26 11:08:43;;;;;;;6.67;4.37;;;;;;;-0.50;88.15;101400.13;5052525;28;20252;-67
2023/10/26 11:11:26;;;;;;;5.70;4.53;;;;;;;-0.45;89.27;101412.97;5051947;28;20278;-71
2023/10/26 11:14:08;;;;;;;20.97;6.10;;;;;;;-0.43;90.14;101416.34;5052297;28;20041;-69
2023/10/26 11:16:35;;;;;;;9.73;4.67;;;;;;;-0.62;90.76;101385.00;5051634;28;20299;-72
2023/10/26 11:19:02;;;;;;;7.27;4.43;;;;;;;-0.57;91.58;101401.34;5052001;28;20642;-72
2023/10/26 11:21:27;;;;;;;11.27;5.73;;;;;;;-0.70;91.66;101380.16;5051300;28;20275;-73
2023/10/26 11:23:53;;;;;;;8.20;5.47;;;;;;;-0.62;92.12;101395.47;5050929;28;20271;-68